Meteo Giornale » Osservazioni meteo Francia » Cannes

ore: 15:30 - Osservazioni Meteo Cannes
Lat. 43° 33' N Lon. 6° 57' E Alt. 3 metri s.l.m.

sereno Europe/Paris

19 °C

Sereno

Temp. 24 Ore

7 °C

21 °C

Sud/Sud-Est

14.8 Km/h

Dew point 11 °C

Umidità 59 %

Visibilità  10 Km

Il sole sorge alle ore 07:24

Il sole tramonta alle ore 19:21

Data e Ora Cielo e Fenomeni T °C DP °C Um. % Pres. hPa Vis. km Vento km/h
Oggi h: 15:30 sereno Sereno 19 11 59 1003 10 S/SE 14.8
Oggi h: 15:00 sereno Sereno 20 9 49 1004 10 S 14.8
Oggi h: 14:30 sereno Sereno 20 10 52 1004 10 S 16.7
Oggi h: 14:00 sereno Sereno 20 10 52 1004 10 S 18.5
Oggi h: 13:30 sereno Sereno 20 8 45 1004 10 S/SE 14.8
Oggi h: 13:00 poco_nuvoloso Poco Nuvoloso 20 8 45 1004 10 S/SE 14.8
Oggi h: 12:30 sereno Sereno 20 8 45 1004 10 S 13
Oggi h: 12:00 sereno Sereno 20 7 42 1004 10 N 5.5
Oggi h: 11:30 sereno Sereno 19 6 42 1004 10 NE 7.4
Oggi h: 11:00 sereno Sereno 19 7 45 1004 10 E/NE 7.4
Oggi h: 10:30 sereno Sereno 18 5 42 1004 10 N 5.5
Oggi h: 10:00 sereno Sereno 16 5 47 1003 10 N 1.8
Oggi h: 09:30 sereno Sereno 13 4 54 1003 10 N 5.5
Oggi h: 09:00 sereno Sereno 11 4 61 1002 10 N 7.4
Oggi h: 08:30 sereno Sereno 9 3 66 1002 10 N 9.3
Oggi h: 08:00 sereno Sereno 7 3 75 1001 10 N 5.5
Oggi h: 07:30 sereno Sereno 7 2 70 1001 10 N 5.5
Oggi h: 07:00 sereno Sereno 7 2 70 1001 10 N 5.5
Oggi h: 06:30 sereno Sereno 8 2 65 1000 10 N 9.3
Oggi h: 06:00 poco_nuvoloso Poco Nuvoloso 8 2 65 1001 10 N 7.4
Oggi h: 05:00 sereno Sereno 7 2 70 1001 10 N 5.5
Oggi h: 04:30 sereno Sereno 8 2 65 1000 10 N 3.7
Oggi h: 04:00 sereno Sereno 8 2 65 1000 10 N 3.7
Oggi h: 03:30 sereno Sereno 9 2 61 1000 10 N 3.7
Oggi h: 03:00 sereno Sereno 9 2 61 1000 10 N 9.3
Oggi h: 02:30 sereno Sereno 9 2 61 1001 10 N 5.5
Oggi h: 02:00 sereno Sereno 9 2 61 1001 10 N 9.3
Oggi h: 01:30 sereno Sereno 10 2 57 1002 10 N 3.7
Oggi h: 01:00 sereno Sereno 10 1 53 1002 10 N 5.5
Oggi h: 00:30 sereno Sereno 9 2 61 1002 10 N 0
Oggi h: 00:00 sereno Sereno 10 2 57 1002 10 N 1.8
Ieri h: 23:00 sereno Sereno 12 2 50 1002 10 N 1.8
Ieri h: 22:30 sereno Sereno 13 -0 40 1001 10 N 5.5
Ieri h: 21:30 sereno Sereno 15 -0 35 1001 10 N 3.7
Ieri h: 21:00 sereno Sereno 15 -1 33 1001 10 O 7.4
Ieri h: 20:30 sereno Sereno 15 -1 33 1000 10 N 5.5
Ieri h: 20:00 sereno Sereno 17 -2 27 1000 10 NO 9.3
Ieri h: 19:30 sereno Sereno 18 -2 25 1000 10 O/NO 20.3
Ieri h: 17:30 sereno Sereno 21 -2 21 999 10 O/NO 27.8